Time;durP1;ratioP1;P1;durP2;ratioP2;P2;SDS_P1;SDS_P2;PMS_P1;PMS_P2;Temp;Humidity;BMP_temperature;BMP_pressure;BME280_temperature;BME280_humidity;BME280_pressure;Samples;Min_cycle;Max_cycle;Signal;HPM_P1;HPM_P2
2021/07/07 00:01:48;;;;;;;11.98;10.77;;;;;;;;;;4955012;28;20410;-89
2021/07/07 00:04:15;;;;;;;12.93;11.65;;;;;;;;;;4955109;28;20490;-88
2021/07/07 00:06:43;;;;;;;12.48;11.30;;;;;;;;;;4955223;28;20418;-86
2021/07/07 00:09:11;;;;;;;11.68;10.57;;;;;;;;;;4954567;28;20435;-89
2021/07/07 00:11:38;;;;;;;12.55;11.35;;;;;;;;;;4954972;28;20404;-88
2021/07/07 00:14:04;;;;;;;11.70;10.50;;;;;;;;;;4951963;28;20451;-90
2021/07/07 00:16:31;;;;;;;11.68;10.57;;;;;;;;;;4954823;28;20416;-89
2021/07/07 00:18:58;;;;;;;11.60;10.45;;;;;;;;;;4954816;28;20470;-89
2021/07/07 00:21:25;;;;;;;11.73;10.65;;;;;;;;;;4954406;28;20416;-89
2021/07/07 00:23:52;;;;;;;12.07;10.80;;;;;;;;;;4953615;28;20429;-89
2021/07/07 00:26:20;;;;;;;11.80;10.70;;;;;;;;;;4954609;28;20598;-89
2021/07/07 00:28:47;;;;;;;11.88;10.57;;;;;;;;;;4954368;28;20418;-89
2021/07/07 00:31:13;;;;;;;11.40;10.23;;;;;;;;;;4952913;28;20414;-89
2021/07/07 00:33:40;;;;;;;11.25;10.20;;;;;;;;;;4954041;28;20411;-89
2021/07/07 00:36:07;;;;;;;11.50;10.40;;;;;;;;;;4953906;28;20412;-89
2021/07/07 00:38:34;;;;;;;10.65;9.55;;;;;;;;;;4954267;28;20416;-89
2021/07/07 00:41:01;;;;;;;10.45;9.35;;;;;;;;;;4953810;28;20415;-89
2021/07/07 00:43:29;;;;;;;11.00;9.95;;;;;;;;;;4953747;28;20423;-89
2021/07/07 00:45:56;;;;;;;11.73;9.73;;;;;;;;;;4953210;28;20780;-89
2021/07/07 00:48:23;;;;;;;10.63;9.63;;;;;;;;;;4952787;28;20481;-89
2021/07/07 00:50:51;;;;;;;11.45;10.35;;;;;;;;;;4951696;28;20472;-89
2021/07/07 00:53:18;;;;;;;10.23;9.32;;;;;;;;;;4953293;28;20918;-89
2021/07/07 00:55:46;;;;;;;11.45;10.25;;;;;;;;;;4953798;28;20418;-89
2021/07/07 00:58:14;;;;;;;11.13;10.13;;;;;;;;;;4953711;28;20419;-89
2021/07/07 01:00:42;;;;;;;10.65;9.50;;;;;;;;;;4953864;28;20613;-89
2021/07/07 01:03:09;;;;;;;11.18;10.02;;;;;;;;;;4953379;28;20423;-89
2021/07/07 01:05:36;;;;;;;11.70;10.70;;;;;;;;;;4952842;28;20420;-88
2021/07/07 01:08:02;;;;;;;10.97;9.97;;;;;;;;;;4952956;28;20404;-89
2021/07/07 01:10:29;;;;;;;11.30;10.30;;;;;;;;;;4954085;28;20439;-89
2021/07/07 01:12:56;;;;;;;11.43;10.23;;;;;;;;;;4952347;28;20419;-89
2021/07/07 01:15:23;;;;;;;11.70;10.18;;;;;;;;;;4952611;28;20429;-89
2021/07/07 01:17:52;;;;;;;11.40;10.30;;;;;;;;;;4958322;28;20458;-89
2021/07/07 01:20:22;;;;;;;10.63;9.65;;;;;;;;;;4954683;28;20780;-87
2021/07/07 01:22:50;;;;;;;11.57;10.38;;;;;;;;;;4952970;28;20910;-89
2021/07/07 01:25:19;;;;;;;10.98;9.77;;;;;;;;;;4955828;28;20418;-88
2021/07/07 01:27:47;;;;;;;10.52;9.52;;;;;;;;;;4952914;28;20492;-89
2021/07/07 01:30:17;;;;;;;11.32;9.80;;;;;;;;;;4952755;28;20436;-87
2021/07/07 01:32:44;;;;;;;10.75;9.40;;;;;;;;;;4952722;28;20404;-89
2021/07/07 01:35:13;;;;;;;11.50;9.35;;;;;;;;;;4955088;28;20415;-88
2021/07/07 01:37:40;;;;;;;10.10;9.10;;;;;;;;;;4955781;28;20415;-89
2021/07/07 01:40:10;;;;;;;9.50;8.60;;;;;;;;;;4956158;28;20415;-88
2021/07/07 01:42:37;;;;;;;9.50;8.60;;;;;;;;;;4956100;28;20907;-86
2021/07/07 01:45:06;;;;;;;10.55;9.43;;;;;;;;;;4955714;28;20474;-88
2021/07/07 01:47:33;;;;;;;10.50;9.32;;;;;;;;;;4955632;28;20416;-89
2021/07/07 01:50:00;;;;;;;10.30;9.30;;;;;;;;;;4956345;28;20824;-89
2021/07/07 01:52:27;;;;;;;11.45;9.10;;;;;;;;;;4957087;28;20412;-88
2021/07/07 01:54:54;;;;;;;10.07;8.90;;;;;;;;;;4955011;28;20424;-87
2021/07/07 01:57:22;;;;;;;9.60;8.70;;;;;;;;;;4955557;28;20473;-88
2021/07/07 01:59:49;;;;;;;10.25;9.25;;;;;;;;;;4955674;28;20434;-88
2021/07/07 02:02:16;;;;;;;10.10;9.13;;;;;;;;;;4951547;28;20416;-88
2021/07/07 02:04:42;;;;;;;10.77;9.43;;;;;;;;;;4949107;28;20471;-89
2021/07/07 02:07:09;;;;;;;10.70;9.63;;;;;;;;;;4948219;29;20416;-87
2021/07/07 02:09:36;;;;;;;10.57;9.57;;;;;;;;;;4948593;29;20943;-89
2021/07/07 02:12:04;;;;;;;10.00;9.02;;;;;;;;;;4948191;29;21328;-88
2021/07/07 02:14:32;;;;;;;11.95;9.82;;;;;;;;;;4945133;29;20455;-89
2021/07/07 02:16:59;;;;;;;10.52;9.43;;;;;;;;;;4947845;28;20404;-89
2021/07/07 02:19:25;;;;;;;11.00;9.90;;;;;;;;;;4948340;28;20459;-87
2021/07/07 02:21:52;;;;;;;10.83;9.73;;;;;;;;;;4948352;29;20412;-89
2021/07/07 02:24:19;;;;;;;10.70;9.70;;;;;;;;;;4948445;28;20427;-89
2021/07/07 02:26:46;;;;;;;10.32;9.25;;;;;;;;;;4949989;28;20427;-89
2021/07/07 02:29:13;;;;;;;11.40;9.93;;;;;;;;;;4948033;28;20764;-88
2021/07/07 02:31:41;;;;;;;10.68;9.70;;;;;;;;;;4948382;28;20419;-89
2021/07/07 02:34:08;;;;;;;10.52;9.43;;;;;;;;;;4948188;29;20412;-88
2021/07/07 02:36:34;;;;;;;11.05;9.18;;;;;;;;;;4948139;28;20419;-87
2021/07/07 02:39:01;;;;;;;10.02;9.00;;;;;;;;;;4947801;28;20404;-87
2021/07/07 02:41:28;;;;;;;10.45;9.38;;;;;;;;;;4948204;29;20420;-88
2021/07/07 02:43:55;;;;;;;10.55;9.43;;;;;;;;;;4947331;29;20944;-88
2021/07/07 02:46:22;;;;;;;11.13;9.70;;;;;;;;;;4947943;29;20409;-88
2021/07/07 02:48:50;;;;;;;9.15;8.25;;;;;;;;;;4947065;28;20412;-88
2021/07/07 02:51:17;;;;;;;9.45;8.55;;;;;;;;;;4947819;28;20443;-86
2021/07/07 02:53:44;;;;;;;10.02;9.05;;;;;;;;;;4947454;28;20423;-87
2021/07/07 02:56:10;;;;;;;9.55;8.60;;;;;;;;;;4947703;28;20412;-88
2021/07/07 02:58:37;;;;;;;9.88;8.88;;;;;;;;;;4947979;28;20833;-88
2021/07/07 03:01:04;;;;;;;10.43;9.32;;;;;;;;;;4947384;29;21031;-86
2021/07/07 03:03:31;;;;;;;10.82;9.73;;;;;;;;;;4947689;28;20408;-87
2021/07/07 03:06:02;;;;;;;10.15;9.15;;;;;;;;;;4947330;29;20718;-88
2021/07/07 03:08:30;;;;;;;10.13;8.83;;;;;;;;;;4947790;29;20569;-87
2021/07/07 03:10:57;;;;;;;10.88;9.80;;;;;;;;;;4947035;28;20781;-88
2021/07/07 03:13:25;;;;;;;11.27;10.18;;;;;;;;;;4947563;28;20424;-89
2021/07/07 03:15:52;;;;;;;11.27;10.18;;;;;;;;;;4947237;28;20423;-87
2021/07/07 03:18:20;;;;;;;12.10;10.88;;;;;;;;;;4947420;29;20408;-87
2021/07/07 03:20:50;;;;;;;11.98;10.73;;;;;;;;;;4947236;28;21130;-88
2021/07/07 03:23:21;;;;;;;11.43;10.23;;;;;;;;;;4947268;29;20606;-88
2021/07/07 03:25:48;;;;;;;11.88;10.77;;;;;;;;;;4949021;28;20428;-89
2021/07/07 03:28:16;;;;;;;12.40;10.40;;;;;;;;;;4947226;29;20904;-89
2021/07/07 03:30:43;;;;;;;11.85;10.75;;;;;;;;;;4946808;28;20908;-88
2021/07/07 03:33:11;;;;;;;11.63;10.13;;;;;;;;;;4946747;28;20408;-87
2021/07/07 03:35:38;;;;;;;11.65;10.57;;;;;;;;;;4947317;29;20471;-88
2021/07/07 03:38:05;;;;;;;12.70;10.50;;;;;;;;;;4946718;29;20463;-89
2021/07/07 03:40:34;;;;;;;11.93;10.73;;;;;;;;;;4947452;28;20478;-89
2021/07/07 03:43:02;;;;;;;12.52;10.75;;;;;;;;;;4943067;29;20408;-88
2021/07/07 03:45:29;;;;;;;11.77;10.68;;;;;;;;;;4947165;28;20416;-87
2021/07/07 03:47:56;;;;;;;11.77;10.57;;;;;;;;;;4946181;29;20419;-88
2021/07/07 03:50:24;;;;;;;12.55;11.25;;;;;;;;;;4946749;28;20995;-87
2021/07/07 03:52:53;;;;;;;11.50;10.43;;;;;;;;;;4946855;29;20411;-89
2021/07/07 03:55:21;;;;;;;11.55;10.35;;;;;;;;;;4946865;28;20412;-88
2021/07/07 03:57:50;;;;;;;11.68;10.55;;;;;;;;;;4946440;28;20423;-89
2021/07/07 04:00:20;;;;;;;11.90;10.80;;;;;;;;;;4946136;28;20959;-88
2021/07/07 04:02:47;;;;;;;12.50;11.20;;;;;;;;;;4946556;28;20475;-88
2021/07/07 04:05:14;;;;;;;13.35;12.00;;;;;;;;;;4941895;28;20760;-87
2021/07/07 04:07:42;;;;;;;12.30;11.20;;;;;;;;;;4950547;28;20927;-87
2021/07/07 04:10:11;;;;;;;12.50;11.27;;;;;;;;;;4959282;28;20430;-88
2021/07/07 04:12:39;;;;;;;13.23;11.97;;;;;;;;;;4960532;28;20410;-89
2021/07/07 04:15:09;;;;;;;13.13;11.85;;;;;;;;;;4959961;28;20477;-86
2021/07/07 04:17:37;;;;;;;12.90;11.65;;;;;;;;;;4960765;28;20406;-88
2021/07/07 04:20:04;;;;;;;16.10;12.15;;;;;;;;;;4959931;28;20535;-89
2021/07/07 04:22:31;;;;;;;13.95;12.55;;;;;;;;;;4959212;28;20421;-87
2021/07/07 04:24:58;;;;;;;13.63;12.20;;;;;;;;;;4958802;28;20408;-88
2021/07/07 04:27:25;;;;;;;13.32;11.95;;;;;;;;;;4959264;28;20474;-88
2021/07/07 04:29:52;;;;;;;12.68;11.38;;;;;;;;;;4958679;28;20485;-89
2021/07/07 04:32:22;;;;;;;13.13;11.90;;;;;;;;;;4959213;28;20886;-88
2021/07/07 04:34:51;;;;;;;13.50;12.20;;;;;;;;;;4959249;28;20466;-87
2021/07/07 04:37:18;;;;;;;13.20;11.90;;;;;;;;;;4959113;28;20411;-87
2021/07/07 04:39:45;;;;;;;12.98;11.60;;;;;;;;;;4959310;28;20406;-89
2021/07/07 04:42:11;;;;;;;12.82;11.52;;;;;;;;;;4957082;28;20410;-89
2021/07/07 04:44:38;;;;;;;12.43;11.13;;;;;;;;;;4959587;28;20940;-90
2021/07/07 04:47:05;;;;;;;13.00;11.32;;;;;;;;;;4958847;28;20424;-87
2021/07/07 04:49:33;;;;;;;11.75;10.55;;;;;;;;;;4958889;28;20896;-88
2021/07/07 04:52:00;;;;;;;12.40;10.50;;;;;;;;;;4956841;28;20426;-88
2021/07/07 04:54:27;;;;;;;11.77;10.32;;;;;;;;;;4958786;28;20415;-87
2021/07/07 04:56:54;;;;;;;11.18;10.05;;;;;;;;;;4958509;28;20502;-88
2021/07/07 04:59:21;;;;;;;11.70;10.52;;;;;;;;;;4958517;28;20810;-88
2021/07/07 05:01:48;;;;;;;11.50;10.20;;;;;;;;;;4958246;28;20423;-88
2021/07/07 05:04:15;;;;;;;11.43;10.23;;;;;;;;;;4958837;28;20407;-87
2021/07/07 05:06:43;;;;;;;12.55;11.35;;;;;;;;;;4959072;28;20418;-88
2021/07/07 05:09:10;;;;;;;11.75;10.55;;;;;;;;;;4958349;28;20429;-88
2021/07/07 05:11:37;;;;;;;14.82;12.35;;;;;;;;;;4960374;28;21455;-87
2021/07/07 05:14:04;;;;;;;14.07;11.45;;;;;;;;;;4962288;28;20817;-88
2021/07/07 05:16:32;;;;;;;14.57;13.18;;;;;;;;;;4960454;28;20474;-89
2021/07/07 05:18:59;;;;;;;13.98;12.68;;;;;;;;;;4961336;28;20423;-89
2021/07/07 05:21:26;;;;;;;14.18;12.65;;;;;;;;;;4961686;28;20409;-88
2021/07/07 05:23:54;;;;;;;14.60;13.20;;;;;;;;;;4960534;28;20457;-87
2021/07/07 05:26:21;;;;;;;15.60;14.05;;;;;;;;;;4961291;28;20810;-89
2021/07/07 05:28:48;;;;;;;14.85;13.35;;;;;;;;;;4960883;28;20909;-90
2021/07/07 05:31:14;;;;;;;18.23;16.33;;;;;;;;;;4961525;28;20433;-88
2021/07/07 05:33:41;;;;;;;17.92;16.00;;;;;;;;;;4961629;28;20456;-88
2021/07/07 05:36:10;;;;;;;18.08;16.27;;;;;;;;;;4961321;28;20421;-89
2021/07/07 05:38:38;;;;;;;21.17;17.83;;;;;;;;;;4961659;28;20416;-89
2021/07/07 05:41:06;;;;;;;19.98;17.73;;;;;;;;;;4961668;28;20912;-89
2021/07/07 05:43:33;;;;;;;21.48;19.38;;;;;;;;;;4959798;28;20420;-90
2021/07/07 05:46:00;;;;;;;22.00;19.27;;;;;;;;;;4959950;28;20412;-89
2021/07/07 05:48:27;;;;;;;21.65;19.33;;;;;;;;;;4960516;28;20436;-88
2021/07/07 05:50:54;;;;;;;22.85;20.50;;;;;;;;;;4959749;28;20481;-90
2021/07/07 17:25:17;;;;;;;3.05;1.80;;;;;;;;;;5019555;28;20471;-91
2021/07/07 17:27:44;;;;;;;2.70;1.60;;;;;;;;;;5024873;28;20409;-91
2021/07/07 17:30:12;;;;;;;2.92;1.90;;;;;;;;;;5024357;28;20881;-91
2021/07/07 17:32:39;;;;;;;2.73;1.70;;;;;;;;;;5019027;28;20882;-91
2021/07/07 17:35:06;;;;;;;3.40;1.95;;;;;;;;;;5024511;28;20397;-91
2021/07/07 17:37:33;;;;;;;2.03;1.45;;;;;;;;;;5024302;28;20943;-91
2021/07/07 17:40:00;;;;;;;3.42;1.70;;;;;;;;;;5024146;28;20495;-91
2021/07/07 17:42:29;;;;;;;2.70;1.67;;;;;;;;;;5023972;28;20431;-91
2021/07/07 17:44:55;;;;;;;4.63;1.95;;;;;;;;;;5024280;28;20468;-91
2021/07/07 17:47:22;;;;;;;2.70;1.75;;;;;;;;;;5023928;28;20888;-91
2021/07/07 17:49:49;;;;;;;3.13;1.83;;;;;;;;;;5023839;28;20402;-90
2021/07/07 17:52:17;;;;;;;3.22;1.90;;;;;;;;;;5023944;28;20557;-91
2021/07/07 17:54:44;;;;;;;2.17;1.88;;;;;;;;;;5024647;28;20734;-91
2021/07/07 17:57:11;;;;;;;2.83;1.88;;;;;;;;;;5023612;28;20406;-91
2021/07/07 17:59:39;;;;;;;1.83;1.70;;;;;;;;;;5018406;28;20404;-91
2021/07/07 18:02:06;;;;;;;2.60;1.85;;;;;;;;;;5023731;28;20429;-91
2021/07/07 18:04:33;;;;;;;3.03;2.00;;;;;;;;;;5022993;28;20417;-90
2021/07/07 18:07:00;;;;;;;2.65;2.03;;;;;;;;;;5022688;28;20414;-91
2021/07/07 18:09:27;;;;;;;2.00;1.80;;;;;;;;;;5022707;28;20430;-91
2021/07/07 18:11:56;;;;;;;2.40;1.90;;;;;;;;;;5022283;28;20481;-91
2021/07/07 18:14:23;;;;;;;3.20;2.15;;;;;;;;;;5022884;28;20916;-90
2021/07/07 18:16:52;;;;;;;2.17;1.92;;;;;;;;;;5022915;28;20401;-91
2021/07/07 18:19:19;;;;;;;2.85;1.92;;;;;;;;;;5021707;28;20412;-90
2021/07/07 18:21:49;;;;;;;2.90;1.80;;;;;;;;;;5023077;28;20421;-91
2021/07/07 18:24:16;;;;;;;3.60;2.20;;;;;;;;;;5022359;28;20414;-90
2021/07/07 18:26:43;;;;;;;4.00;2.28;;;;;;;;;;5022558;28;20406;-90
2021/07/07 18:29:11;;;;;;;2.53;2.20;;;;;;;;;;5016894;28;20421;-90
2021/07/07 18:31:38;;;;;;;2.95;2.40;;;;;;;;;;5023192;28;20415;-90
2021/07/07 18:34:06;;;;;;;2.85;2.30;;;;;;;;;;5022164;28;20447;-90
2021/07/07 18:36:34;;;;;;;3.67;2.38;;;;;;;;;;5021803;28;20469;-90
2021/07/07 18:39:01;;;;;;;2.85;2.17;;;;;;;;;;5019103;28;20457;-91
2021/07/07 18:41:28;;;;;;;3.60;2.45;;;;;;;;;;5021611;28;20426;-90
2021/07/07 18:43:54;;;;;;;3.10;2.40;;;;;;;;;;5021632;28;20917;-90
2021/07/07 18:46:21;;;;;;;4.53;2.58;;;;;;;;;;5021354;28;20751;-91
2021/07/07 18:48:48;;;;;;;3.63;2.38;;;;;;;;;;5021113;28;20459;-90
2021/07/07 18:51:17;;;;;;;5.20;2.50;;;;;;;;;;5021394;28;20398;-90
2021/07/07 18:53:43;;;;;;;3.70;2.63;;;;;;;;;;5021602;28;20405;-91
2021/07/07 18:56:13;;;;;;;3.97;2.43;;;;;;;;;;5018736;28;20420;-90
2021/07/07 18:58:40;;;;;;;4.85;2.70;;;;;;;;;;5022192;28;20951;-90
2021/07/07 19:01:07;;;;;;;4.72;2.70;;;;;;;;;;5021236;28;20492;-91
2021/07/07 19:03:34;;;;;;;4.95;2.83;;;;;;;;;;5020724;28;20670;-90
2021/07/07 19:06:02;;;;;;;4.75;3.25;;;;;;;;;;5020998;28;20407;-89
2021/07/07 19:08:30;;;;;;;5.70;3.38;;;;;;;;;;5021023;28;20479;-90
2021/07/07 19:10:58;;;;;;;4.18;3.08;;;;;;;;;;5020760;28;20411;-90
2021/07/07 19:13:25;;;;;;;4.50;3.15;;;;;;;;;;5020382;28;20402;-91
2021/07/07 19:15:52;;;;;;;3.58;3.28;;;;;;;;;;5020430;28;20456;-90
2021/07/07 19:18:19;;;;;;;5.80;3.00;;;;;;;;;;5020023;28;20405;-90
2021/07/07 19:20:46;;;;;;;5.78;3.60;;;;;;;;;;5020302;28;20642;-90
2021/07/07 19:23:14;;;;;;;4.78;3.28;;;;;;;;;;5020278;28;20433;-90
2021/07/07 19:25:43;;;;;;;8.93;4.10;;;;;;;;;;5018335;28;20402;-90
2021/07/07 19:28:10;;;;;;;4.88;3.50;;;;;;;;;;5017345;28;20625;-90
2021/07/07 19:30:36;;;;;;;5.65;3.58;;;;;;;;;;5019656;28;20793;-90
2021/07/07 19:33:04;;;;;;;6.57;3.90;;;;;;;;;;5018935;28;20407;-90
2021/07/07 19:35:31;;;;;;;5.13;3.92;;;;;;;;;;5019653;28;20399;-90
2021/07/07 19:38:00;;;;;;;5.30;3.50;;;;;;;;;;5019201;28;20494;-90
2021/07/07 19:40:28;;;;;;;6.95;3.70;;;;;;;;;;5019503;28;20415;-90
2021/07/07 19:42:56;;;;;;;5.10;3.85;;;;;;;;;;5017924;28;20962;-90
2021/07/07 19:45:25;;;;;;;6.68;4.15;;;;;;;;;;5017646;28;20444;-90
2021/07/07 19:47:52;;;;;;;8.60;4.30;;;;;;;;;;5019160;28;20409;-90
2021/07/07 19:50:22;;;;;;;6.20;4.20;;;;;;;;;;5018933;28;20943;-90
2021/07/07 19:52:49;;;;;;;4.88;4.20;;;;;;;;;;5018944;28;20928;-89
2021/07/07 19:55:17;;;;;;;5.25;4.20;;;;;;;;;;5018751;28;20406;-90
2021/07/07 19:57:44;;;;;;;4.72;4.00;;;;;;;;;;5014379;28;20452;-90
2021/07/07 20:00:15;;;;;;;5.88;4.50;;;;;;;;;;5019384;28;20641;-90
2021/07/07 20:02:44;;;;;;;5.07;4.57;;;;;;;;;;5014472;28;20430;-90
2021/07/07 20:05:11;;;;;;;5.82;4.43;;;;;;;;;;5018481;28;20397;-90
2021/07/07 20:07:40;;;;;;;6.95;4.28;;;;;;;;;;5019601;28;20824;-90
2021/07/07 20:10:09;;;;;;;6.60;4.25;;;;;;;;;;5016666;28;20411;-90
2021/07/07 20:12:37;;;;;;;5.25;4.40;;;;;;;;;;5018497;28;20406;-90
2021/07/07 20:15:05;;;;;;;5.40;4.22;;;;;;;;;;5017390;28;20407;-90
2021/07/07 20:17:34;;;;;;;5.22;4.55;;;;;;;;;;5016513;28;20407;-90
2021/07/07 20:20:01;;;;;;;6.18;4.60;;;;;;;;;;5018174;28;20449;-90
2021/07/07 20:22:27;;;;;;;6.10;4.50;;;;;;;;;;5017720;28;20497;-90
2021/07/07 20:24:55;;;;;;;4.90;4.40;;;;;;;;;;5017466;28;20405;-90
2021/07/07 20:27:22;;;;;;;5.10;4.30;;;;;;;;;;5008394;28;20414;-89
2021/07/07 20:29:49;;;;;;;5.80;4.38;;;;;;;;;;5015008;28;21240;-89
2021/07/07 20:32:16;;;;;;;6.32;4.38;;;;;;;;;;5018460;28;20978;-90
2021/07/07 20:34:45;;;;;;;5.68;4.40;;;;;;;;;;5015814;28;20504;-89
2021/07/07 20:37:11;;;;;;;5.10;4.60;;;;;;;;;;5018340;28;20766;-90
2021/07/07 20:39:38;;;;;;;5.85;4.70;;;;;;;;;;5018487;28;20412;-90
2021/07/07 20:42:06;;;;;;;5.70;4.38;;;;;;;;;;5020097;28;20650;-89
2021/07/07 20:44:33;;;;;;;5.57;4.40;;;;;;;;;;5023561;28;20779;-89
2021/07/07 20:47:00;;;;;;;6.22;4.50;;;;;;;;;;5021635;28;20422;-90
2021/07/07 20:49:29;;;;;;;5.40;4.60;;;;;;;;;;5021521;28;20401;-89
2021/07/07 20:51:57;;;;;;;7.68;5.20;;;;;;;;;;5021323;28;20429;-89
2021/07/07 20:54:24;;;;;;;5.95;5.35;;;;;;;;;;5020973;28;20402;-88
2021/07/07 20:56:51;;;;;;;6.27;5.30;;;;;;;;;;5021271;28;20401;-89
2021/07/07 20:59:18;;;;;;;6.97;5.35;;;;;;;;;;5021158;28;20405;-89
2021/07/07 21:01:45;;;;;;;6.68;5.32;;;;;;;;;;5019045;28;20397;-90
2021/07/07 21:04:11;;;;;;;6.65;5.35;;;;;;;;;;5021240;28;20884;-88
2021/07/07 21:06:38;;;;;;;7.30;5.88;;;;;;;;;;5019172;28;20407;-89
2021/07/07 21:09:07;;;;;;;8.07;6.07;;;;;;;;;;5021219;28;20411;-89
2021/07/07 21:11:34;;;;;;;7.22;6.18;;;;;;;;;;5019718;28;20411;-88
2021/07/07 21:14:00;;;;;;;6.22;5.60;;;;;;;;;;5019798;28;20453;-89
2021/07/07 21:16:27;;;;;;;7.43;5.75;;;;;;;;;;5020408;28;20408;-87
2021/07/07 21:18:54;;;;;;;6.85;6.00;;;;;;;;;;5020395;28;20809;-90
2021/07/07 21:21:21;;;;;;;5.93;5.32;;;;;;;;;;5020071;28;20405;-89
2021/07/07 21:23:48;;;;;;;7.57;5.80;;;;;;;;;;5020529;28;20429;-90
2021/07/07 21:26:16;;;;;;;8.43;6.55;;;;;;;;;;5021198;28;20435;-88
2021/07/07 21:28:43;;;;;;;7.95;6.40;;;;;;;;;;5020998;28;20397;-89
2021/07/07 21:31:10;;;;;;;9.43;6.68;;;;;;;;;;5020106;28;21312;-90
2021/07/07 21:33:37;;;;;;;9.73;7.50;;;;;;;;;;5019231;28;20417;-90
2021/07/07 21:36:04;;;;;;;11.00;7.38;;;;;;;;;;5018727;28;20810;-89
2021/07/07 21:38:31;;;;;;;8.38;7.38;;;;;;;;;;5019781;28;20891;-87
2021/07/07 21:40:58;;;;;;;8.38;7.13;;;;;;;;;;5019682;28;20399;-90
2021/07/07 21:43:26;;;;;;;10.77;7.18;;;;;;;;;;5020709;28;20429;-90
2021/07/07 21:45:53;;;;;;;8.43;7.38;;;;;;;;;;5018417;28;20405;-90
2021/07/07 21:48:20;;;;;;;12.27;7.47;;;;;;;;;;5021219;28;20800;-89
2021/07/07 21:50:48;;;;;;;7.60;6.60;;;;;;;;;;5015759;28;20401;-89
2021/07/07 21:53:14;;;;;;;8.13;6.50;;;;;;;;;;5018458;28;20769;-88
2021/07/07 21:55:41;;;;;;;10.05;6.88;;;;;;;;;;5020002;28;20413;-88
2021/07/07 21:58:08;;;;;;;7.78;6.93;;;;;;;;;;5019707;28;20407;-88
2021/07/07 22:00:37;;;;;;;8.68;6.88;;;;;;;;;;5019582;28;20763;-87
2021/07/07 22:03:06;;;;;;;7.05;6.35;;;;;;;;;;5020981;28;20939;-89
2021/07/07 22:05:34;;;;;;;10.00;7.07;;;;;;;;;;5022479;28;20402;-90
2021/07/07 22:08:01;;;;;;;10.05;7.88;;;;;;;;;;5022372;28;20414;-90
2021/07/07 22:10:28;;;;;;;9.23;7.38;;;;;;;;;;5021074;28;20403;-89
2021/07/07 22:12:55;;;;;;;9.18;8.18;;;;;;;;;;5021908;28;20504;-89
2021/07/07 22:15:23;;;;;;;10.30;8.63;;;;;;;;;;5021232;28;20409;-89
2021/07/07 22:17:51;;;;;;;9.35;8.38;;;;;;;;;;5021430;28;20451;-88
2021/07/07 22:20:18;;;;;;;8.93;8.02;;;;;;;;;;5001983;28;20914;-89
2021/07/07 22:22:46;;;;;;;9.33;8.33;;;;;;;;;;5001874;28;20423;-89
2021/07/07 22:25:14;;;;;;;8.35;7.55;;;;;;;;;;5020925;28;20452;-89
2021/07/07 22:27:42;;;;;;;8.83;7.43;;;;;;;;;;5022042;28;20876;-88
2021/07/07 22:30:12;;;;;;;11.13;7.63;;;;;;;;;;5020880;28;20407;-88
2021/07/07 22:32:39;;;;;;;9.75;7.63;;;;;;;;;;5021326;28;20459;-89
2021/07/07 22:35:09;;;;;;;7.63;6.83;;;;;;;;;;5017812;28;20491;-90
2021/07/07 22:37:36;;;;;;;8.35;7.38;;;;;;;;;;5016367;28;20403;-90
2021/07/07 22:40:04;;;;;;;8.23;7.43;;;;;;;;;;5014974;28;20403;-89
2021/07/07 22:42:31;;;;;;;8.93;7.05;;;;;;;;;;5016949;28;20435;-89
2021/07/07 22:44:58;;;;;;;9.75;7.00;;;;;;;;;;5017006;28;20418;-87
2021/07/07 22:47:25;;;;;;;8.35;6.57;;;;;;;;;;5016855;28;20410;-90
2021/07/07 22:49:54;;;;;;;8.17;6.37;;;;;;;;;;5016775;28;20409;-89
2021/07/07 22:52:23;;;;;;;8.25;5.45;;;;;;;;;;5013777;28;20401;-89
2021/07/07 22:54:49;;;;;;;5.90;4.72;;;;;;;;;;5013256;28;20919;-89
2021/07/07 22:57:16;;;;;;;4.60;4.20;;;;;;;;;;5015029;28;20402;-88
2021/07/07 22:59:43;;;;;;;4.70;3.90;;;;;;;;;;5017376;28;20893;-88
2021/07/07 23:02:10;;;;;;;3.92;3.45;;;;;;;;;;5016602;28;20934;-89
2021/07/07 23:04:38;;;;;;;4.25;3.47;;;;;;;;;;5016733;28;20435;-90
2021/07/07 23:07:05;;;;;;;4.63;3.45;;;;;;;;;;5014584;28;20510;-89
2021/07/07 23:09:34;;;;;;;6.80;3.30;;;;;;;;;;5014034;28;20407;-88
2021/07/07 23:12:00;;;;;;;3.33;3.03;;;;;;;;;;5015898;28;20407;-89
2021/07/07 23:14:27;;;;;;;5.80;3.20;;;;;;;;;;5010991;28;20417;-89
2021/07/07 23:16:54;;;;;;;4.20;3.20;;;;;;;;;;5010624;28;20420;-89
2021/07/07 23:19:21;;;;;;;3.72;2.90;;;;;;;;;;5011760;28;20909;-88
2021/07/07 23:21:48;;;;;;;3.55;3.25;;;;;;;;;;5013878;28;20881;-88
2021/07/07 23:24:15;;;;;;;5.43;3.50;;;;;;;;;;5013973;28;20433;-89
2021/07/07 23:26:43;;;;;;;3.22;2.92;;;;;;;;;;5015923;28;20399;-88
2021/07/07 23:29:10;;;;;;;3.10;2.80;;;;;;;;;;5015613;28;20757;-88
2021/07/07 23:31:37;;;;;;;3.55;2.88;;;;;;;;;;5015814;28;20399;-87
2021/07/07 23:34:04;;;;;;;3.10;2.80;;;;;;;;;;5012096;28;20485;-87
2021/07/07 23:36:30;;;;;;;3.42;2.90;;;;;;;;;;5015487;28;20760;-88
2021/07/07 23:38:57;;;;;;;3.35;2.70;;;;;;;;;;5014765;28;20751;-89
2021/07/07 23:41:24;;;;;;;3.15;2.65;;;;;;;;;;5014859;28;20405;-89
2021/07/07 23:43:52;;;;;;;3.40;2.90;;;;;;;;;;5014604;28;20905;-89
2021/07/07 23:46:19;;;;;;;3.38;2.65;;;;;;;;;;5015012;28;20405;-88
2021/07/07 23:48:46;;;;;;;2.72;2.45;;;;;;;;;;5015378;28;20398;-89
2021/07/07 23:51:13;;;;;;;3.07;2.47;;;;;;;;;;5015150;28;20418;-88
2021/07/07 23:53:40;;;;;;;3.65;2.53;;;;;;;;;;5015726;28;20415;-89
2021/07/07 23:56:06;;;;;;;3.28;2.63;;;;;;;;;;5014544;28;20886;-88
2021/07/07 23:58:33;;;;;;;2.35;2.22;;;;;;;;;;5014889;28;20419;-89
